André Costa

Scout - Atlético Mineiro
4 Apr 2027
Sonntag
Verarbeitung

Persönlichkeit

Anpassungsfähigkeit (11) Ehrgeiz (14) Kontroverse (19) Loyalität (12) Druck (19) Professionalität (8) Fairness (5) Temperament (16)

Profil

Trainerstil Demokratisch
Lizenz Kontinentale B
Entschlossenheit 8
Menschenführung 6
Motivation 14
Disziplin 13
Arbeitszufriedenheit
59%
Ermüdung
0%
Rolle Scout
Gehalt 102.4K p/W
Vertrag 14.03.2028

Leistung

Verhalten Gut
Trainingseffektivität
30%
Spielerentwicklung
30%
Verletzungsprävention
40%
Taktische Umsetzung
75%

Letzte Ereignisse

Nahm an einer Scouting-Besprechung teil jetzt
Nahm an einer Scouting-Besprechung teil 7T her
Empfahl ein Transferziel 7T her
Spieler begutachtet 7T her
Spieler begutachtet 14T her
Spieler begutachtet 14T her
Geburtstag 14T her
Spieler begutachtet 14T her

Aktuell beobachtet

139
Spieler Verein Status Fähigkeit Vertrauen Beobachtet Zuletzt beobachtet Letzte Stimme
Cesar Corona Veracruz Aktiv 138 / 135 40% 4 03.04.2027 -
Mohamed-Ali Cho Hull City Aktiv 129 / 142 40% 4 03.04.2027 -
Ernest Nuamah Olympique Lyonnais Aktiv 147 / 125 40% 3 03.04.2027 -
Pau Víctor Braga Aktiv 142 / 135 40% 5 26.03.2027 -
Giacomo Raspadori Atalanta Aktiv 152 / 153 40% 2 26.03.2027 -
Jaden Philogene Ipswich Town Aktiv 148 / 134 40% 1 26.03.2027 -
Yuri Alberto Corinthians Aktiv 141 / 137 40% 3 19.03.2027 -
Borja Sainz Porto Aktiv 146 / 162 40% 5 19.03.2027 -
Efraín Álvarez Guadalajara Aktiv 135 / 133 40% 2 19.03.2027 -
Brian Rodríguez Club America Aktiv 125 / 137 40% 4 18.03.2027 -
Marcel Ruiz Toluca Aktiv 146 / 150 40% 2 18.03.2027 -
Kevin Fulham Aktiv 142 / 134 40% 2 18.03.2027 -
Gabri Veiga Porto Aktiv 145 / 151 40% 3 16.03.2027 -
Brennan Johnson Everton Aktiv 147 / 129 40% 2 16.03.2027 -
Heorhii Sudakov Benfica Aktiv 150 / 159 40% 2 12.03.2027 -
Luis Quintero Torreense Aktiv 132 / 134 40% 2 12.03.2027 -
Roberto Fernández Braga Aktiv 139 / 132 40% 2 05.03.2027 -
Reiss Nelson AC Milan Aktiv 152 / 149 40% 1 05.03.2027 -
Leonardo Lelo Braga Aktiv 133 / 131 40% 3 03.03.2027 -
Rodrigo Zalazar Sporting CP Aktiv 147 / 166 40% 2 03.03.2027 -
Geny Sporting CP Aktiv 153 / 155 40% 3 26.02.2027 -
Víctor Gómez Braga Aktiv 147 / 130 40% 4 22.02.2027 -
Percy Erasmus SuperSport United Aktiv 122 / 119 40% 1 20.02.2027 -
Mario Dorgeles Braga Aktiv 134 / 138 40% 3 17.02.2027 -
Mason Greenwood Fenerbahce Aktiv 151 / 157 40% 1 17.02.2027 -
Alberto Costa Porto Aktiv 140 / 146 40% 7 15.02.2027 -
Rodrigo Pinheiro Famalicao Aktiv 128 / 124 40% 2 15.02.2027 -
Ander Barrenetxea Real Sociedad Aktiv 158 / 144 40% 1 15.02.2027 -
Luís Guilherme Sporting CP Aktiv 125 / 117 40% 1 11.02.2027 -
Moussa Diaby Al-Ittihad Aktiv 159 / 129 40% 3 06.02.2027 -
Chiquinho Alverca Aktiv 140 / 147 40% 1 05.02.2027 -
Savinho Tottenham Aktiv 164 / 157 40% 1 03.02.2027 -
Nicolas Jackson Aston Villa Aktiv 147 / 136 40% 1 03.02.2027 -
John Kennedy Fluminense Aktiv 132 / 114 72% 1 21.12.2026 Befürworten
Yanis Begraoui Estoril Praia Aktiv 138 / 128 40% 5 10.12.2026 -
Talisca Fenerbahce Verloren 154 / 148 40% 1 10.12.2026 -
Vangelis Pavlidis Benfica Aktiv 147 / 167 40% 1 10.12.2026 -
Fernando Bragantino Verloren 126 / 122 72% 1 07.12.2026 -
Luis Suárez Sporting CP Aktiv 147 / 138 40% 1 30.11.2026 -
Gonzalo Plata Dinamo Moscow Aktiv 125 / 142 40% 1 30.11.2026 -
Anthony Patterson Wrexham Aktiv 127 / 138 40% 4 29.11.2026 -
Matheus Mendes Alverca Aktiv 125 / 102 40% 4 29.11.2026 -
Elia Caprile Cagliari Aktiv 145 / 146 40% 2 29.11.2026 -
Pablo Rosario Porto Aktiv 147 / 145 40% 1 29.11.2026 -
Cezary Miszta Rio Ave Aktiv 123 / 134 40% 2 28.11.2026 -
João Palhinha Benfica Verloren 149 / 148 40% 2 26.11.2026 -
Michael Cooper Sheffield United Aktiv 136 / 131 40% 5 26.11.2026 -
Robin Roefs Sunderland Aktiv 135 / 158 40% 1 26.11.2026 -
Lucas Chevalier Paris Saint-Germain Aktiv 159 / 172 40% 1 26.11.2026 -
Kang-In Lee Atlético Madrid Aktiv 153 / 141 40% 1 26.11.2026 -
Đorđe Petrović Bournemouth Aktiv 157 / 138 40% 4 24.11.2026 -
Andriy Lunin Real Madrid Aktiv 162 / 167 40% 3 24.11.2026 -
Jonmi Magunagoitia Eibar Aktiv 116 / 120 40% 2 24.11.2026 -
Jamie Cumming Oxford United Aktiv 130 / 139 40% 4 23.11.2026 -
Samuel Soares Benfica Aktiv 121 / 132 40% 4 23.11.2026 -
Grégoire Coudert Burnley Aktiv 136 / 121 40% 5 22.11.2026 -
Radek Vítek Middlesbrough Aktiv 140 / 135 40% 3 22.11.2026 -
Josh Keeley Luton Town Aktiv 119 / 112 40% 1 22.11.2026 -
Rafik Guitane Estoril Praia Aktiv 129 / 142 40% 2 21.11.2026 -
Haissem Hassan Bloemfontein Celtic Aktiv 127 / 131 40% 2 21.11.2026 -
Leandro Barreiro Benfica Aktiv 145 / 157 40% 4 20.11.2026 -
James Trafford Leeds United Aktiv 137 / 133 40% 4 20.11.2026 -
Sergio Arribas Almería Aktiv 129 / 130 40% 1 20.11.2026 -
Felipe Zenobio Tigre Aktiv 135 / 124 40% 7 18.11.2026 -
Bernardo Fontes Braga Aktiv 137 / 140 40% 3 18.11.2026 -
Lukas Jensen Millwall Aktiv 119 / 106 40% 2 18.11.2026 -
Carl Rushworth Coventry City Aktiv 125 / 125 40% 4 17.11.2026 -
Luis Ingolotti Atlético Tucumán Aktiv 116 / 120 40% 5 17.11.2026 -
Lukáš Provod Slavia Prague Aktiv 137 / 162 40% 2 17.11.2026 -
Iván Romero Levante Aktiv 130 / 152 40% 1 17.11.2026 -
Santi García Gil Vicente Aktiv 142 / 136 40% 3 16.11.2026 -
Nemanja Radonjić Crvena Zvezda Aktiv 125 / 133 40% 1 16.11.2026 -
David Larrubia Málaga Aktiv 134 / 117 40% 1 16.11.2026 -
Sam Tickle Wigan Athletic Aktiv 135 / 112 40% 3 13.11.2026 -
Sebastián Meza Huracán Aktiv 126 / 137 40% 7 12.11.2026 -
Jakub Stolarczyk Leicester City Aktiv 126 / 124 40% 4 12.11.2026 -
Alan Varela Porto Aktiv 154 / 152 40% 3 11.11.2026 -
Leo Román Deportivo La Coruña Aktiv 152 / 158 40% 5 10.11.2026 -
Patrick Sequeira Casa Pia Aktiv 135 / 105 40% 2 10.11.2026 -
Jan Bednarek Porto Verloren 149 / 142 40% 1 10.11.2026 -
Marcos Llorente Atlético Madrid Aktiv 166 / 160 40% 1 10.11.2026 -
Yeremay Deportivo La Coruña Aktiv 138 / 148 40% 2 09.11.2026 -
Jack Clarke Ipswich Town Aktiv 143 / 121 40% 1 09.11.2026 -
Javi Ontiveros Cádiz Aktiv 122 / 117 40% 1 09.11.2026 -
Gabriel Brazão Santos Aktiv 137 / 130 40% 5 08.11.2026 -
Daniel Bragança Sporting CP Aktiv 135 / 150 40% 3 07.11.2026 -
Anthony Racioppi Sion Aktiv 114 / 133 40% 1 06.11.2026 -
Victor Froholdt Porto Aktiv 139 / 174 40% 1 04.11.2026 -
Alfon Sevilla Aktiv 146 / 122 40% 1 04.11.2026 -
Francisco Moura Porto Verloren 148 / 120 40% 2 02.11.2026 -
Vitinho Botafogo Aktiv 141 / 134 40% 1 02.11.2026 -
Gustaf Lagerbielke Braga Aktiv 130 / 140 40% 1 02.11.2026 -
Guilherme Fernandes Córdoba Aktiv 135 / 127 40% 1 31.10.2026 -
Caoimhin Kelleher Brentford Aktiv 160 / 131 40% 3 28.10.2026 -
Robin Risser RC Lens Aktiv 131 / 150 40% 1 25.10.2026 -
Lazar Carević Famalicao Aktiv 129 / 134 40% 4 24.10.2026 -
Luiz Júnior Villarreal Aktiv 143 / 139 40% 1 23.10.2026 -
Enzo Barrenechea Benfica Aktiv 139 / 159 40% 1 22.10.2026 -
Jordan Holsgrove Estoril Praia Aktiv 125 / 131 40% 1 21.10.2026 -
Adriel Torreense Aktiv 106 / 113 40% 1 19.10.2026 -
Santiago Silva Boston River Aktiv 126 / 110 40% 1 17.10.2026 -
Leroy Sané Galatasaray Aktiv 158 / 151 40% 2 16.10.2026 -
Lucas Paquetá Flamengo Aktiv 132 / 146 40% 1 15.10.2026 -
Gianluca Prestianni Benfica Aktiv 132 / 141 40% 4 13.10.2026 -
Mauro Silveira Junior Aktiv 113 / 125 40% 1 13.10.2026 -
Kein Sato FC Tokyo Aktiv 136 / 148 40% 1 12.10.2026 -
Roman Celentano FC Cincinnati Aktiv 113 / 110 40% 1 10.10.2026 -
Ryan Gauld Vancouver Whitecaps Aktiv 142 / 138 40% 1 09.10.2026 -
Iván Fresneda Sporting CP Aktiv 136 / 128 40% 2 06.10.2026 -
João Carvalho Estoril Praia Aktiv 123 / 142 40% 2 06.10.2026 -
Majid Dejagah Gostaresh Foulad Aktiv 137 / 121 40% 1 04.10.2026 -
Axel Openda KV Oostende Aktiv 134 / 137 40% 1 01.10.2026 -
Mathias De Amorim Famalicao Aktiv 133 / 126 40% 3 29.09.2026 -
Andrew Flamengo Aktiv 127 / 120 40% 3 27.09.2026 -
Patrick Schulte Columbus Crew Aktiv 128 / 126 40% 2 27.09.2026 -
Carlos Miguel Palmeiras Aktiv 135 / 137 40% 2 24.09.2026 -
Sorriso Famalicao Aktiv 119 / 141 40% 2 23.09.2026 -
Andreas Pereira Palmeiras Aktiv 146 / 127 40% 1 23.09.2026 -
Roberto Alvarado Guadalajara Aktiv 144 / 152 40% 1 23.09.2026 -
Djordje Mihailović Toronto FC Aktiv 136 / 122 40% 1 23.09.2026 -
Samuel Lino Flamengo Aktiv 139 / 146 40% 1 19.09.2026 -
Jonas Wind Braga Aktiv 138 / 140 40% 1 19.09.2026 -
Nuno Santos Sporting CP Aktiv 144 / 148 40% 1 18.09.2026 -
Guilherme Arana Fluminense Aktiv 129 / 134 40% 1 18.09.2026 -
Felipe Parra Envigado Aktiv 127 / 129 40% 3 08.09.2026 -
Antonín Kinský Tottenham Aktiv 138 / 156 40% 1 08.09.2026 -
Viktor Johansson Stoke City Aktiv 137 / 139 40% 2 05.09.2026 -
Mark Travers Everton Aktiv 126 / 124 40% 3 03.09.2026 -
Kostantis Tzolakis Hull City Aktiv 147 / 137 40% 1 02.09.2026 -
Dmytro Riznyk Shakhtar Aktiv 130 / 136 40% 1 02.09.2026 -
Léo Linck Botafogo Aktiv 125 / 116 40% 1 24.08.2026 -
Nathan Trott Cardiff City Aktiv 121 / 122 40% 1 23.08.2026 -
Hugo Souza Corinthians Aktiv 138 / 146 40% 1 20.08.2026 -
Gabriel Grando Grêmio Aktiv 129 / 133 40% 1 13.08.2026 -
Manuel Roffo Cerro Porteno Aktiv 124 / 136 40% 1 12.08.2026 -
Alexander Sørloth Atlético Madrid Aktiv 143 / 135 40% 1 03.08.2026 -
Kasper Dolberg Ajax Aktiv 139 / 143 40% 1 03.08.2026 -
Leandro Trossard Besiktas Aktiv 159 / 157 40% 1 03.08.2026 -
Saša Lukić Ipswich Town Aktiv 142 / 144 40% 1 01.08.2026 -